createdAt,value
2019-04-01T00:00:15.333Z,11.35
2019-04-01T00:02:44.738Z,11.38
2019-04-01T00:05:14.425Z,11.37
2019-04-01T00:07:43.517Z,11.28
2019-04-01T00:10:12.616Z,11.03
2019-04-01T00:12:41.741Z,11.08
2019-04-01T00:15:10.815Z,10.86
2019-04-01T00:17:40.092Z,10.94
2019-04-01T00:20:09.214Z,10.96
2019-04-01T00:22:38.638Z,10.93
2019-04-01T00:25:07.759Z,10.78
2019-04-01T00:27:36.895Z,10.71
2019-04-01T00:30:06.314Z,10.71
2019-04-01T00:32:35.395Z,10.71
2019-04-01T00:35:04.600Z,10.58
2019-04-01T00:37:33.787Z,10.58
2019-04-01T00:40:02.965Z,10.54
2019-04-01T00:42:55.609Z,10.49
2019-04-01T00:45:25.627Z,10.49
2019-04-01T00:47:54.690Z,10.39
2019-04-01T00:50:23.738Z,10.39
2019-04-01T00:52:52.786Z,10.37
2019-04-01T00:55:21.838Z,10.35
2019-04-01T00:57:52.967Z,10.38
2019-04-01T01:00:22.379Z,10.21
2019-04-01T01:02:51.416Z,10.10
2019-04-01T01:05:20.653Z,10.01
2019-04-01T01:07:49.838Z,9.98
2019-04-01T01:10:19.102Z,9.87
2019-04-01T01:12:48.320Z,9.81
2019-04-01T01:15:17.541Z,9.72
2019-04-01T01:17:46.718Z,9.75
2019-04-01T01:20:16.034Z,9.82
2019-04-01T01:22:45.063Z,9.81
2019-04-01T01:25:14.495Z,9.68
2019-04-01T01:27:43.627Z,9.53
2019-04-01T01:30:13.249Z,9.62
2019-04-01T01:32:42.284Z,9.71
2019-04-01T01:35:11.359Z,9.59
2019-04-01T01:37:40.595Z,9.52
2019-04-01T01:40:09.753Z,9.39
2019-04-01T01:42:38.975Z,9.48
2019-04-01T01:45:08.069Z,9.44
2019-04-01T01:47:37.390Z,9.46
2019-04-01T01:50:06.969Z,9.27
2019-04-01T01:52:35.997Z,9.44
2019-04-01T01:55:05.189Z,9.41
2019-04-01T01:57:34.229Z,9.35
2019-04-01T02:00:03.509Z,9.28
2019-04-01T02:02:32.796Z,9.27
2019-04-01T02:05:02.069Z,9.14
2019-04-01T02:07:31.295Z,9.18
2019-04-01T02:10:00.505Z,9.11
2019-04-01T02:12:29.601Z,9.01
2019-04-01T02:14:58.773Z,8.96
2019-04-01T02:17:28.095Z,9.16
2019-04-01T02:19:57.209Z,9.18
2019-04-01T02:22:26.590Z,9.14
2019-04-01T02:24:55.718Z,9.08
2019-04-01T02:27:25.081Z,9.01
2019-04-01T02:29:54.148Z,8.90
2019-04-01T02:32:23.323Z,8.82
2019-04-01T02:34:52.576Z,8.89
2019-04-01T02:37:21.743Z,8.90
2019-04-01T02:39:51.135Z,8.81
2019-04-01T02:42:20.227Z,8.79
2019-04-01T02:44:49.470Z,8.80
2019-04-01T02:47:18.865Z,8.80
2019-04-01T02:49:48.104Z,8.83
2019-04-01T02:52:17.256Z,8.75
2019-04-01T02:54:46.372Z,8.60
2019-04-01T02:57:15.572Z,8.76
2019-04-01T02:59:44.792Z,8.76
2019-04-01T03:02:14.018Z,8.76
2019-04-01T03:04:43.285Z,8.73
2019-04-01T03:07:12.490Z,8.69
2019-04-01T03:09:41.865Z,8.59
2019-04-01T03:12:10.954Z,8.68
2019-04-01T03:14:40.172Z,8.61
2019-04-01T03:17:09.433Z,8.40
2019-04-01T03:19:38.831Z,8.51
2019-04-01T03:22:07.855Z,8.45
2019-04-01T03:24:37.056Z,8.34
2019-04-01T03:27:06.228Z,8.39
2019-04-01T03:29:35.393Z,8.38
2019-04-01T03:32:04.816Z,8.44
2019-04-01T03:34:33.941Z,8.52
2019-04-01T03:37:03.271Z,8.44
2019-04-01T03:39:32.340Z,8.35
2019-04-01T03:42:01.474Z,8.28
2019-04-01T03:44:30.872Z,8.19
2019-04-01T03:47:00.033Z,8.18
2019-04-01T03:49:29.322Z,8.22
2019-04-01T03:51:58.513Z,8.22
2019-04-01T03:54:27.699Z,8.21
2019-04-01T03:56:56.764Z,8.24
2019-04-01T03:59:26.147Z,8.20
2019-04-01T04:01:55.520Z,8.17
2019-04-01T04:04:24.566Z,8.09
2019-04-01T04:06:53.773Z,8.13
2019-04-01T04:09:23.204Z,8.12
2019-04-01T04:11:52.228Z,8.06
2019-04-01T04:14:21.469Z,8.03
2019-04-01T04:16:50.629Z,8.02
2019-04-01T04:19:19.909Z,7.95
2019-04-01T04:21:49.208Z,7.92
2019-04-01T04:24:18.336Z,7.95
2019-04-01T04:26:47.546Z,7.84
2019-04-01T04:29:16.839Z,7.83
2019-04-01T04:31:45.910Z,7.80
2019-04-01T04:34:15.307Z,7.79
2019-04-01T04:36:44.543Z,7.73
2019-04-01T04:39:13.685Z,7.72
2019-04-01T04:41:43.012Z,7.71
2019-04-01T04:44:12.118Z,7.68
2019-04-01T04:46:41.404Z,7.64
2019-04-01T04:49:10.472Z,7.62
2019-04-01T04:51:39.585Z,7.60
2019-04-01T04:54:08.602Z,7.61
2019-04-01T04:56:37.690Z,7.53
2019-04-01T04:59:06.744Z,7.47
2019-04-01T05:01:35.856Z,7.49
2019-04-01T05:04:04.869Z,7.50
2019-04-01T05:06:34.429Z,7.52
2019-04-01T05:09:05.842Z,7.51
2019-04-01T05:11:34.860Z,7.46
2019-04-01T05:14:03.893Z,7.42
2019-04-01T05:16:32.981Z,7.53
2019-04-01T05:19:02.186Z,7.55
2019-04-01T05:21:31.787Z,7.35
2019-04-01T05:24:01.858Z,7.41
2019-04-01T05:26:30.967Z,7.42
2019-04-01T05:29:01.431Z,7.31
2019-04-01T05:31:31.844Z,7.22
2019-04-01T05:34:02.511Z,7.27
2019-04-01T05:36:32.509Z,7.33
2019-04-01T05:39:01.920Z,7.25
2019-04-01T05:41:31.142Z,7.39
2019-04-01T05:44:02.234Z,7.35
2019-04-01T05:46:31.508Z,7.54
2019-04-01T05:49:00.694Z,7.53
2019-04-01T05:51:29.924Z,7.69
2019-04-01T05:53:59.057Z,7.60
2019-04-01T05:56:28.320Z,7.61
2019-04-01T05:58:57.671Z,7.56
2019-04-01T06:01:31.703Z,7.59
2019-04-01T06:04:00.958Z,7.51
2019-04-01T06:06:30.176Z,7.67
2019-04-01T06:08:59.271Z,7.71
2019-04-01T06:11:28.518Z,7.91
2019-04-01T06:13:57.861Z,7.90
2019-04-01T06:16:26.990Z,8.02
2019-04-01T06:18:56.315Z,7.93
2019-04-01T06:21:25.502Z,7.93
2019-04-01T06:23:54.842Z,8.00
2019-04-01T06:26:23.882Z,8.09
2019-04-01T06:28:53.149Z,8.19
2019-04-01T06:31:22.208Z,7.97
2019-04-01T06:33:51.558Z,8.19
2019-04-01T06:36:20.775Z,8.30
2019-04-01T06:38:50.030Z,8.24
2019-04-01T06:41:19.225Z,8.48
2019-04-01T06:43:48.450Z,8.48
2019-04-01T06:46:17.683Z,8.55
2019-04-01T06:48:46.806Z,8.47
2019-04-01T06:51:16.194Z,8.51
2019-04-01T06:53:45.218Z,8.50
2019-04-01T06:56:14.595Z,8.80
2019-04-01T06:58:43.767Z,9.11
2019-04-01T07:01:12.985Z,8.84
2019-04-01T07:03:42.371Z,9.05
2019-04-01T07:06:11.413Z,9.03
2019-04-01T07:08:40.964Z,9.25
2019-04-01T07:11:10.010Z,9.14
2019-04-01T07:13:40.220Z,9.22
2019-04-01T07:16:15.768Z,9.14
2019-04-01T07:18:40.600Z,9.22
2019-04-01T07:21:09.727Z,9.29
2019-04-01T07:23:39.061Z,9.05
2019-04-01T07:26:08.153Z,9.27
2019-04-01T07:28:37.305Z,9.54
2019-04-01T07:31:06.633Z,9.88
2019-04-01T07:33:35.982Z,10.03
2019-04-01T07:36:05.137Z,10.25
2019-04-01T07:38:34.332Z,10.42
2019-04-01T07:41:03.453Z,10.29
2019-04-01T07:43:32.684Z,10.19
2019-04-01T07:46:02.174Z,10.19
2019-04-01T07:48:31.600Z,10.31
2019-04-01T07:51:00.679Z,10.46
2019-04-01T07:53:29.753Z,10.48
2019-04-01T07:56:02.383Z,10.55
2019-04-01T07:58:30.071Z,10.57
2019-04-01T08:00:59.364Z,10.67
2019-04-01T08:03:28.586Z,10.79
2019-04-01T08:05:57.657Z,11.00
2019-04-01T08:08:26.977Z,10.84
2019-04-01T08:10:56.081Z,10.68
2019-04-01T08:13:25.315Z,10.69
2019-04-01T08:15:54.807Z,10.83
2019-04-01T08:18:23.940Z,11.09
2019-04-01T08:20:52.961Z,10.71
2019-04-01T08:23:22.228Z,10.96
2019-04-01T08:25:51.351Z,11.29
2019-04-01T08:28:23.677Z,11.25
2019-04-01T08:30:51.379Z,11.52
2019-04-01T08:33:20.504Z,11.88
2019-04-01T08:35:49.672Z,11.95
2019-04-01T08:38:18.686Z,12.11
2019-04-01T08:40:48.341Z,11.90
2019-04-01T08:43:17.448Z,11.91
2019-04-01T08:45:46.477Z,12.12
2019-04-01T08:48:15.545Z,12.18
2019-04-01T08:50:44.718Z,12.29
2019-04-01T08:53:13.846Z,12.62
2019-04-01T08:55:42.970Z,12.86
2019-04-01T08:58:12.350Z,13.34
2019-04-01T09:00:41.412Z,13.23
2019-04-01T09:03:10.778Z,13.18
2019-04-01T09:05:39.931Z,12.98
2019-04-01T09:08:09.035Z,13.44
2019-04-01T09:10:38.527Z,13.33
2019-04-01T09:13:07.626Z,13.35
2019-04-01T09:15:36.978Z,13.08
2019-04-01T09:18:06.047Z,13.52
2019-04-01T09:20:35.207Z,13.68
2019-04-01T09:23:04.545Z,13.73
2019-04-01T09:25:33.663Z,13.64
2019-04-01T09:28:02.920Z,13.77
2019-04-01T09:30:32.106Z,13.86
2019-04-01T09:33:01.311Z,13.77
2019-04-01T09:35:30.557Z,13.93
2019-04-01T09:37:59.769Z,14.38
2019-04-01T09:40:29.160Z,14.23
2019-04-01T09:42:58.204Z,14.17
2019-04-01T09:45:27.448Z,14.26
2019-04-01T09:47:56.776Z,14.39
2019-04-01T09:50:25.989Z,14.35
2019-04-01T09:52:55.178Z,14.25
2019-04-01T09:55:24.495Z,14.27
2019-04-01T09:57:53.588Z,14.29
2019-04-01T10:00:22.989Z,14.66
2019-04-01T10:02:52.143Z,14.71
2019-04-01T10:05:21.391Z,14.86
2019-04-01T10:07:50.662Z,15.03
2019-04-01T10:10:19.874Z,15.05
2019-04-01T10:12:48.931Z,14.84
2019-04-01T10:15:18.140Z,15.04
2019-04-01T10:17:47.451Z,15.15
2019-04-01T10:20:16.677Z,15.13
2019-04-01T10:22:45.791Z,15.05
2019-04-01T10:25:15.144Z,15.20
2019-04-01T10:27:44.282Z,15.39
2019-04-01T10:30:13.632Z,15.29
2019-04-01T10:32:42.785Z,15.37
2019-04-01T10:35:13.813Z,15.63
2019-04-01T10:37:43.066Z,15.87
2019-04-01T10:40:12.297Z,16.04
2019-04-01T10:42:41.627Z,15.97
2019-04-01T10:45:11.023Z,15.65
2019-04-01T10:47:40.178Z,15.68
2019-04-01T10:50:09.582Z,15.96
2019-04-01T10:52:38.647Z,15.85
2019-04-01T10:55:07.987Z,16.09
2019-04-01T10:57:37.104Z,16.49
2019-04-01T11:00:07.486Z,16.69
2019-04-01T11:02:36.607Z,16.45
2019-04-01T11:05:06.002Z,16.60
2019-04-01T11:07:35.017Z,16.78
2019-04-01T11:10:04.546Z,16.55
2019-04-01T11:12:33.631Z,16.88
2019-04-01T11:15:02.681Z,17.06
2019-04-01T11:17:31.784Z,16.59
2019-04-01T11:20:00.887Z,16.80
2019-04-01T11:22:30.003Z,16.86
2019-04-01T11:24:59.304Z,16.71
2019-04-01T11:27:28.582Z,17.18
2019-04-01T11:29:57.785Z,17.38
2019-04-01T11:32:27.025Z,17.23
2019-04-01T11:34:56.431Z,17.11
2019-04-01T11:37:25.667Z,17.20
2019-04-01T11:39:54.691Z,17.09
2019-04-01T11:42:23.747Z,16.95
2019-04-01T11:44:53.135Z,16.76
2019-04-01T11:47:22.541Z,17.07
2019-04-01T11:49:51.716Z,17.12
2019-04-01T11:52:20.850Z,16.97
2019-04-01T11:54:50.188Z,17.05
2019-04-01T11:57:19.243Z,17.05
2019-04-01T11:59:48.358Z,17.07
2019-04-01T12:02:17.703Z,16.97
2019-04-01T12:04:46.804Z,17.12
2019-04-01T12:07:16.073Z,16.83
2019-04-01T12:09:45.359Z,17.02
2019-04-01T12:12:23.609Z,17.11
2019-04-01T12:14:45.248Z,17.08
2019-04-01T12:17:14.308Z,17.12
2019-04-01T12:19:44.627Z,17.19
2019-04-01T12:22:13.762Z,17.36
2019-04-01T12:24:42.842Z,17.30
2019-04-01T12:27:11.876Z,17.27
2019-04-01T12:29:41.086Z,17.33
2019-04-01T12:32:10.176Z,17.35
2019-04-01T12:34:42.185Z,17.30
2019-04-01T12:37:10.845Z,17.46
2019-04-01T12:39:41.062Z,17.80
2019-04-01T12:42:10.279Z,17.91
2019-04-01T12:44:39.557Z,17.80
2019-04-01T12:47:08.764Z,17.87
2019-04-01T12:49:38.069Z,17.62
2019-04-01T12:52:07.185Z,18.06
2019-04-01T12:54:36.296Z,17.76
2019-04-01T12:57:05.397Z,17.75
2019-04-01T12:59:34.483Z,17.86
2019-04-01T13:02:04.819Z,17.91
2019-04-01T13:04:36.100Z,17.85
2019-04-01T13:07:05.291Z,18.03
2019-04-01T13:09:34.590Z,17.93
2019-04-01T13:12:04.042Z,17.96
2019-04-01T13:14:33.151Z,18.11
2019-04-01T13:17:02.249Z,18.14
2019-04-01T13:19:31.343Z,18.21
2019-04-01T13:22:00.458Z,18.20
2019-04-01T13:24:29.718Z,18.39
2019-04-01T13:27:00.364Z,18.32
2019-04-01T13:29:30.275Z,18.41
2019-04-01T13:32:00.695Z,18.54
2019-04-01T13:34:30.501Z,18.42
2019-04-01T13:36:59.868Z,18.26
2019-04-01T13:39:28.954Z,18.41
2019-04-01T13:41:58.230Z,18.52
2019-04-01T13:44:36.638Z,18.53
2019-04-01T13:46:58.207Z,18.39
2019-04-01T13:49:27.407Z,18.43
2019-04-01T13:51:56.639Z,18.45
2019-04-01T13:54:25.691Z,18.41
2019-04-01T13:56:54.781Z,18.50
2019-04-01T13:59:24.230Z,18.53
2019-04-01T14:01:54.334Z,18.55
2019-04-01T14:04:24.255Z,18.36
2019-04-01T14:06:53.356Z,18.29
2019-04-01T14:09:22.994Z,18.40
2019-04-01T14:11:52.062Z,18.32
2019-04-01T14:14:21.188Z,18.57
2019-04-01T14:16:50.256Z,18.66
2019-04-01T14:19:20.004Z,18.54
2019-04-01T14:21:50.052Z,18.63
2019-04-01T14:24:19.181Z,18.65
2019-04-01T14:26:48.435Z,18.70
2019-04-01T14:29:17.573Z,18.65
2019-04-01T14:31:46.793Z,18.82
2019-04-01T14:34:22.831Z,18.81
2019-04-01T14:36:46.796Z,18.90
2019-04-01T14:39:16.197Z,18.84
2019-04-01T14:41:45.397Z,18.80
2019-04-01T14:44:14.567Z,18.77
2019-04-01T14:46:43.829Z,18.79
2019-04-01T14:49:12.997Z,18.78
2019-04-01T14:51:42.609Z,18.73
2019-04-01T14:54:11.645Z,18.72
2019-04-01T14:56:40.706Z,18.65
2019-04-01T14:59:09.769Z,18.68
2019-04-01T15:01:39.108Z,18.67
2019-04-01T15:04:08.465Z,18.74
2019-04-01T15:06:37.552Z,18.68
2019-04-01T15:09:08.455Z,18.71
2019-04-01T15:11:37.874Z,18.68
2019-04-01T15:14:08.570Z,18.70
2019-04-01T15:16:37.703Z,18.56
2019-04-01T15:19:06.828Z,18.56
2019-04-01T15:21:36.123Z,18.63
2019-04-01T15:24:05.323Z,18.50
2019-04-01T15:26:34.403Z,18.45
2019-04-01T15:29:03.453Z,18.47
2019-04-01T15:31:32.801Z,18.65
2019-04-01T15:34:01.995Z,18.60
2019-04-01T15:36:31.216Z,18.52
2019-04-01T15:39:00.308Z,18.56
2019-04-01T15:41:29.498Z,18.54
2019-04-01T15:43:59.168Z,18.62
2019-04-01T15:46:28.257Z,18.58
2019-04-01T15:48:57.288Z,18.56
2019-04-01T15:51:26.672Z,18.50
2019-04-01T15:53:55.790Z,18.47
2019-04-01T15:56:25.014Z,18.44
2019-04-01T15:58:54.252Z,18.40
2019-04-01T16:01:23.368Z,18.43
2019-04-01T16:03:52.698Z,18.41
2019-04-01T16:06:21.790Z,18.38
2019-04-01T16:08:51.128Z,18.25
2019-04-01T16:11:20.400Z,18.28
2019-04-01T16:13:49.637Z,18.30
2019-04-01T16:16:18.874Z,18.31
2019-04-01T16:18:48.000Z,18.30
2019-04-01T16:21:17.226Z,18.22
2019-04-01T16:23:47.300Z,18.28
2019-04-01T16:26:16.614Z,18.28
2019-04-01T16:28:45.739Z,18.18
2019-04-01T16:31:15.045Z,18.23
2019-04-01T16:33:44.319Z,18.17
2019-04-01T16:36:13.514Z,18.15
2019-04-01T16:38:42.789Z,18.04
2019-04-01T16:41:11.858Z,18.02
2019-04-01T16:43:41.090Z,18.07
2019-04-01T16:46:12.116Z,18.04
2019-04-01T16:48:41.443Z,18.01
2019-04-01T16:51:10.764Z,17.99
2019-04-01T16:53:39.966Z,17.92
2019-04-01T16:56:09.228Z,17.91
2019-04-01T16:58:38.443Z,18.03
2019-04-01T17:01:09.465Z,17.91
2019-04-01T17:03:38.973Z,17.93
2019-04-01T17:06:08.154Z,17.85
2019-04-01T17:08:39.157Z,17.80
2019-04-01T17:11:08.626Z,17.70
2019-04-01T17:13:37.766Z,17.70
2019-04-01T17:16:07.120Z,17.68
2019-04-01T17:18:37.059Z,17.59
2019-04-01T17:21:06.623Z,17.55
2019-04-01T17:23:35.875Z,17.50
2019-04-01T17:26:05.343Z,17.50
2019-04-01T17:28:34.948Z,17.37
2019-04-01T17:31:04.201Z,17.34
2019-04-01T17:33:33.620Z,17.39
2019-04-01T17:36:02.824Z,17.37
2019-04-01T17:38:31.988Z,17.27
2019-04-01T17:41:01.494Z,17.21
2019-04-01T17:43:30.804Z,17.19
2019-04-01T17:45:59.938Z,17.12
2019-04-01T17:48:29.029Z,17.12
2019-04-01T17:50:58.407Z,17.06
2019-04-01T17:53:27.443Z,16.94
2019-04-01T17:55:56.693Z,16.84
2019-04-01T17:58:25.918Z,16.77
2019-04-01T18:00:57.054Z,16.66
2019-04-01T18:03:26.205Z,16.66
2019-04-01T18:05:55.652Z,16.58
2019-04-01T18:08:24.951Z,16.39
2019-04-01T18:10:54.136Z,16.36
2019-04-01T18:13:23.230Z,16.23
2019-04-01T18:15:57.180Z,16.23
2019-04-01T18:18:27.115Z,16.19
2019-04-01T18:20:56.266Z,16.11
2019-04-01T18:23:26.435Z,16.02
2019-04-01T18:25:55.999Z,16.00
2019-04-01T18:28:25.376Z,15.82
2019-04-01T18:30:54.941Z,15.76
2019-04-01T18:33:24.611Z,15.62
2019-04-01T18:35:54.354Z,15.52
2019-04-01T18:38:24.136Z,15.42
2019-04-01T18:40:53.602Z,15.31
2019-04-01T18:43:22.709Z,15.23
2019-04-01T18:45:52.024Z,15.12
2019-04-01T18:48:21.193Z,15.03
2019-04-01T18:50:50.267Z,14.94
2019-04-01T18:53:19.440Z,14.78
2019-04-01T18:55:48.719Z,14.66
2019-04-01T18:58:17.829Z,14.55
2019-04-01T19:00:47.545Z,14.41
2019-04-01T19:03:17.173Z,14.27
2019-04-01T19:05:47.069Z,14.17
2019-04-01T19:08:16.524Z,14.03
2019-04-01T19:10:45.900Z,13.94
2019-04-01T19:13:23.732Z,13.86
2019-04-01T19:15:54.338Z,13.76
2019-04-01T19:18:23.738Z,13.67
2019-04-01T19:20:56.890Z,13.60
2019-04-01T19:23:23.945Z,13.52
2019-04-01T19:25:53.055Z,13.39
2019-04-01T19:28:23.043Z,13.31
2019-04-01T19:30:52.746Z,13.21
2019-04-01T19:33:22.681Z,13.13
2019-04-01T19:35:51.842Z,13.09
2019-04-01T19:38:21.554Z,13.04
2019-04-01T19:40:52.164Z,12.97
2019-04-01T19:43:21.603Z,12.88
2019-04-01T19:45:50.924Z,12.84
2019-04-01T19:48:20.126Z,12.80
2019-04-01T19:50:49.445Z,12.78
2019-04-01T19:53:18.551Z,12.70
2019-04-01T19:55:48.632Z,12.66
2019-04-01T19:58:17.727Z,12.58
2019-04-01T20:00:46.907Z,12.51
2019-04-01T20:03:15.974Z,12.47
2019-04-01T20:05:45.162Z,12.47
2019-04-01T20:08:16.151Z,12.45
2019-04-01T20:10:46.208Z,12.41
2019-04-01T20:13:15.776Z,12.39
2019-04-01T20:15:44.950Z,12.35
2019-04-01T20:18:14.145Z,12.31
2019-04-01T20:20:43.354Z,12.25
2019-04-01T20:23:12.780Z,12.20
2019-04-01T20:25:41.882Z,12.25
2019-04-01T20:28:11.079Z,12.19
2019-04-01T20:30:42.574Z,12.18
2019-04-01T20:33:17.773Z,12.16
2019-04-01T20:35:42.251Z,12.09
2019-04-01T20:38:11.312Z,12.07
2019-04-01T20:40:40.367Z,12.09
2019-04-01T20:43:09.403Z,12.16
2019-04-01T20:45:38.656Z,12.02
2019-04-01T20:48:07.884Z,12.00
2019-04-01T20:50:37.206Z,12.00
2019-04-01T20:53:06.322Z,11.99
2019-04-01T20:55:47.681Z,11.88
2019-04-01T20:58:06.699Z,11.76
2019-04-01T21:00:35.862Z,11.78
2019-04-01T21:03:05.056Z,11.68
2019-04-01T21:05:34.316Z,11.63
2019-04-01T21:08:03.462Z,11.62
2019-04-01T21:10:32.832Z,11.56
2019-04-01T21:13:01.963Z,11.65
2019-04-01T21:15:31.192Z,11.47
2019-04-01T21:18:00.534Z,11.39
2019-04-01T21:20:29.637Z,11.31
2019-04-01T21:22:58.777Z,11.23
2019-04-01T21:25:27.977Z,11.31
2019-04-01T21:27:57.410Z,11.21
2019-04-01T21:30:26.471Z,11.20
2019-04-01T21:32:55.859Z,11.03
2019-04-01T21:35:25.035Z,11.07
2019-04-01T21:37:54.206Z,11.15
2019-04-01T21:40:23.301Z,11.09
2019-04-01T21:42:52.593Z,11.08
2019-04-01T21:45:21.863Z,11.02
2019-04-01T21:47:50.992Z,10.94
2019-04-01T21:50:20.134Z,10.99
2019-04-01T21:52:49.385Z,10.96
2019-04-01T21:55:19.176Z,10.88
2019-04-01T21:57:48.319Z,10.72
2019-04-01T22:00:27.590Z,10.65
2019-04-01T22:02:56.675Z,10.57
2019-04-01T22:05:25.745Z,10.61
2019-04-01T22:07:54.774Z,10.48
2019-04-01T22:10:23.889Z,10.34
2019-04-01T22:12:53.018Z,10.40
2019-04-01T22:15:23.005Z,10.28
2019-04-01T22:17:52.380Z,10.20
2019-04-01T22:20:21.622Z,10.18
2019-04-01T22:22:50.872Z,10.05
2019-04-01T22:25:20.000Z,10.05
2019-04-01T22:27:49.289Z,9.99
2019-04-01T22:30:18.611Z,10.02
2019-04-01T22:32:47.677Z,9.99
2019-04-01T22:35:17.042Z,9.91
2019-04-01T22:37:46.188Z,9.78
2019-04-01T22:40:15.719Z,9.79
2019-04-01T22:42:44.897Z,9.84
2019-04-01T22:45:13.926Z,9.75
2019-04-01T22:47:43.199Z,9.69
2019-04-01T22:50:12.334Z,9.60
2019-04-01T22:52:42.311Z,9.58
2019-04-01T22:55:11.652Z,9.47
2019-04-01T22:57:40.990Z,9.52
2019-04-01T23:00:10.109Z,9.53
2019-04-01T23:02:39.382Z,9.46
2019-04-01T23:05:08.957Z,9.48
2019-04-01T23:07:38.034Z,9.48
2019-04-01T23:10:07.216Z,9.45
2019-04-01T23:12:36.295Z,9.44
2019-04-01T23:15:06.797Z,9.28
2019-04-01T23:17:36.099Z,9.28
2019-04-01T23:20:05.846Z,9.29
2019-04-01T23:22:35.159Z,9.30
2019-04-01T23:25:04.803Z,9.31
2019-04-01T23:27:33.889Z,9.25
2019-04-01T23:30:04.578Z,9.16
2019-04-01T23:32:33.907Z,9.04
2019-04-01T23:35:03.189Z,9.04
2019-04-01T23:37:32.387Z,9.05
2019-04-01T23:40:02.385Z,9.06
2019-04-01T23:42:32.883Z,9.03
2019-04-01T23:45:01.974Z,9.02
2019-04-01T23:47:31.290Z,9.00
2019-04-01T23:50:00.433Z,8.98
2019-04-01T23:52:29.525Z,8.98
2019-04-01T23:54:59.230Z,8.90
2019-04-01T23:57:29.112Z,8.94
2019-04-01T23:59:58.301Z,8.98
